Surfside, South Carolina
Current Conditions -  °F | °C
As of 10:50 AM on Friday 24 Oct 2014 (Local Time) from KMYR Reporting Station
Broken Clouds Broken Clouds  
Wind Chill: 61°   Ceiling: 15000
Heat Index: 61°   Visibility: 10mi
Dew Point: 45°   Wind: 9mph
Humidity: 55%   Direction: 350°N
Pressure: 30.07"   Gusts: NA
Location:  33.6272°N, 78.9693°W
Report Text: KMYR 241450Z 35008KT 10SM BKN150 16/07 A3007
Loading
Personal Weather Stations






























Interactive Weather Map
Tropical Storm Tracking
New forecast layout! Learn more

10-Day Weather Forecast

Advertisements
Track Severe Weather on mobile